PWSweather.com
Personal Weather Stations
Station Observations
PEISSEN1
PeissenbergDE

PeissenbergDE

Lat: 47.791845, Lon: 11.064121

Elevation: 1929

Station Type: Davis Vantage Pro 2

wetter-peissenberg.de

High Low Average
Temperature 64.9°F18.3°C 53.6°F12.0°C 58.0°F14.4°C
Dew Point 54.1°F12.3°C 48.2°F9.0°C 51.3°F10.7°C
Winds 10.6 mph 17.1 kmh Calm Calm 2.0 mph W3.2 kmh W
Wind Gusts 18.0 mph29.0 kmh -- 4.0 mph6.4 kmh
Humidity 94% 55% 80%
Pressure 30.06 in1017.9 mb 29.96 in1014.6 mb -
Precipitation 0.49 in12.4 mm - -
Hour Temp Dew Point Humidity Winds Wind Gusts Pressure Precip Precip Rate Daily Precip Total
12:00 AM 56.5°F13.6°C 53.3°F11.8°C 89% Calm Calm -- 29.96 in1014.6 mb 0.00 in0.0 mm 0.00 in0.0 mm 0.00 in0.0 mm
12:10 AM 56.5°F13.6°C 53.3°F11.8°C 89% Calm Calm -- 29.96 in1014.6 mb 0.00 in0.0 mm 0.00 in0.0 mm 0.00 in0.0 mm
12:20 AM 56.5°F13.6°C 53.6°F12.0°C 90% Calm Calm -- 29.96 in1014.6 mb 0.00 in0.0 mm 0.00 in0.0 mm 0.00 in0.0 mm
02:00 AM 56.1°F13.4°C 53.8°F12.1°C 92% Calm Calm -- 29.97 in1014.9 mb 0.01 in0.3 mm 0.02 in0.5 mm 0.15 in3.8 mm
02:10 AM 56.1°F13.4°C 53.8°F12.1°C 92% Calm Calm -- 29.97 in1014.9 mb 0.01 in0.3 mm 0.00 in0.0 mm 0.20 in5.1 mm
02:20 AM 55.9°F13.3°C 53.6°F12.0°C 92% 1.2 mph SW1.9 kmh SW 3.0 mph4.8 kmh 29.97 in1014.9 mb 0.00 in0.0 mm 0.00 in0.0 mm 0.23 in5.8 mm
04:00 AM 55.9°F13.3°C 53.9°F12.2°C 93% Calm Calm -- 30.00 in1015.9 mb 0.00 in0.0 mm 0.00 in0.0 mm 0.39 in9.9 mm
04:10 AM 55.8°F13.2°C 53.8°F12.1°C 93% 0.1 mph SW0.2 kmh SW 1.0 mph1.6 kmh 30.00 in1015.9 mb 0.00 in0.0 mm 0.00 in0.0 mm 0.42 in10.7 mm
04:20 AM 55.8°F13.2°C 54.1°F12.3°C 94% 1.2 mph N1.9 kmh N 3.0 mph4.8 kmh 30.00 in1015.9 mb 0.00 in0.0 mm 0.00 in0.0 mm 0.43 in10.9 mm
06:00 AM 55.0°F12.8°C 53.1°F11.7°C 93% 0.1 mph WSW0.2 kmh WSW 1.0 mph1.6 kmh 30.02 in1016.6 mb 0.00 in0.0 mm 0.00 in0.0 mm 0.48 in12.2 mm
06:10 AM 55.0°F12.8°C 53.1°F11.7°C 93% 1.6 mph WSW2.6 kmh WSW 4.0 mph6.4 kmh 30.02 in1016.6 mb 0.00 in0.0 mm 0.00 in0.0 mm 0.48 in12.2 mm
06:20 AM 54.9°F12.7°C 52.9°F11.6°C 93% 1.1 mph WSW1.8 kmh WSW 3.0 mph4.8 kmh 30.02 in1016.6 mb 0.00 in0.0 mm 0.00 in0.0 mm 0.48 in12.2 mm
08:00 AM 54.5°F12.5°C 51.9°F11.1°C 91% 1.7 mph N2.7 kmh N 6.0 mph9.7 kmh 30.03 in1016.9 mb 0.00 in0.0 mm 0.00 in0.0 mm 0.48 in12.2 mm
08:10 AM 54.5°F12.5°C 51.9°F11.1°C 91% 0.7 mph WSW1.1 kmh WSW 2.0 mph3.2 kmh 30.03 in1016.9 mb 0.00 in0.0 mm 0.00 in0.0 mm 0.48 in12.2 mm
08:20 AM 54.7°F12.6°C 52.1°F11.2°C 91% 0.6 mph N1.0 kmh N 2.0 mph3.2 kmh 30.03 in1016.9 mb 0.00 in0.0 mm 0.00 in0.0 mm 0.48 in12.2 mm
10:00 AM 58.8°F14.9°C 52.0°F11.1°C 78% 8.3 mph W13.4 kmh W 16.0 mph25.7 kmh 30.06 in1017.9 mb 0.00 in0.0 mm 0.00 in0.0 mm 0.49 in12.4 mm
10:10 AM 59.4°F15.2°C 52.1°F11.2°C 77% 3.8 mph SW6.1 kmh SW 12.0 mph19.3 kmh 30.06 in1017.9 mb 0.00 in0.0 mm 0.00 in0.0 mm 0.49 in12.4 mm
10:20 AM 59.4°F15.2°C 51.8°F11.0°C 76% 6.8 mph WSW10.9 kmh WSW 12.0 mph19.3 kmh 30.06 in1017.9 mb 0.00 in0.0 mm 0.00 in0.0 mm 0.49 in12.4 mm
12:00 PM 63.1°F17.3°C 49.9°F9.9°C 62% 3.9 mph SW6.3 kmh SW 8.0 mph12.9 kmh 30.05 in1017.6 mb 0.00 in0.0 mm 0.00 in0.0 mm 0.49 in12.4 mm
12:10 PM 63.0°F17.2°C 49.3°F9.6°C 61% 5.3 mph N8.5 kmh N 11.0 mph17.7 kmh 30.05 in1017.6 mb 0.00 in0.0 mm 0.00 in0.0 mm 0.49 in12.4 mm
12:20 PM 63.1°F17.3°C 48.6°F9.2°C 59% 10.6 mph W17.1 kmh W 18.0 mph29.0 kmh 30.05 in1017.6 mb 0.00 in0.0 mm 0.00 in0.0 mm 0.49 in12.4 mm
02:00 PM 64.8°F18.2°C 48.7°F9.3°C 56% 5.8 mph WSW9.3 kmh WSW 10.0 mph16.1 kmh 30.03 in1016.9 mb 0.00 in0.0 mm 0.00 in0.0 mm 0.49 in12.4 mm
02:10 PM 64.8°F18.2°C 48.2°F9.0°C 55% 4.5 mph W7.2 kmh W 11.0 mph17.7 kmh 30.03 in1016.9 mb 0.00 in0.0 mm 0.00 in0.0 mm 0.49 in12.4 mm
02:20 PM 64.9°F18.3°C 48.4°F9.1°C 55% 4.8 mph WNW7.7 kmh WNW 10.0 mph16.1 kmh 30.04 in1017.3 mb 0.00 in0.0 mm 0.00 in0.0 mm 0.49 in12.4 mm
04:00 PM 64.4°F18.0°C 48.8°F9.3°C 57% 3.7 mph W6.0 kmh W 7.0 mph11.3 kmh 30.03 in1016.9 mb 0.00 in0.0 mm 0.00 in0.0 mm 0.49 in12.4 mm
04:10 PM 64.0°F17.8°C 49.4°F9.7°C 59% 1.5 mph N2.4 kmh N 2.0 mph3.2 kmh 30.03 in1016.9 mb 0.00 in0.0 mm 0.00 in0.0 mm 0.49 in12.4 mm
04:20 PM 63.9°F17.7°C 50.1°F10.1°C 61% 0.6 mph WSW1.0 kmh WSW 3.0 mph4.8 kmh 30.03 in1016.9 mb 0.00 in0.0 mm 0.00 in0.0 mm 0.49 in12.4 mm
06:00 PM 60.1°F15.6°C 49.9°F9.9°C 69% 0.8 mph N1.3 kmh N 2.0 mph3.2 kmh 30.03 in1016.9 mb 0.00 in0.0 mm 0.00 in0.0 mm 0.49 in12.4 mm
06:10 PM 59.0°F15.0°C 50.7°F10.4°C 74% Calm Calm -- 30.03 in1016.9 mb 0.00 in0.0 mm 0.00 in0.0 mm 0.49 in12.4 mm
06:20 PM 57.9°F14.4°C 50.8°F10.4°C 77% Calm Calm -- 30.03 in1016.9 mb 0.00 in0.0 mm 0.00 in0.0 mm 0.49 in12.4 mm
08:00 PM 54.3°F12.4°C 49.9°F9.9°C 85% Calm Calm -- 30.04 in1017.3 mb 0.00 in0.0 mm 0.00 in0.0 mm 0.49 in12.4 mm
08:10 PM 54.3°F12.4°C 49.9°F9.9°C 85% Calm Calm -- 30.05 in1017.6 mb 0.00 in0.0 mm 0.00 in0.0 mm 0.49 in12.4 mm
08:20 PM 54.1°F12.3°C 49.7°F9.8°C 85% Calm Calm -- 30.05 in1017.6 mb 0.00 in0.0 mm 0.00 in0.0 mm 0.49 in12.4 mm
10:00 PM 53.8°F12.1°C 50.0°F10.0°C 87% Calm Calm -- 30.05 in1017.6 mb 0.00 in0.0 mm 0.00 in0.0 mm 0.49 in12.4 mm
10:10 PM 53.8°F12.1°C 50.0°F10.0°C 87% Calm Calm -- 30.06 in1017.9 mb 0.00 in0.0 mm 0.00 in0.0 mm 0.49 in12.4 mm
10:20 PM 53.6°F12.0°C 49.8°F9.9°C 87% Calm Calm -- 30.06 in1017.9 mb 0.00 in0.0 mm 0.00 in0.0 mm 0.49 in12.4 mm